sensor_id;sensor_type;location;lat;lon;timestamp;P1;durP1;ratioP1;P2;durP2;ratioP2
20209;SDS011;10264;53.178;5.840;2022-08-02T00:02:21;6.60;;;4.57;;
20209;SDS011;10264;53.178;5.840;2022-08-02T00:04:48;9.93;;;4.33;;
20209;SDS011;10264;53.178;5.840;2022-08-02T00:07:14;8.03;;;4.20;;
20209;SDS011;10264;53.178;5.840;2022-08-02T00:09:41;5.57;;;4.13;;
20209;SDS011;10264;53.178;5.840;2022-08-02T00:12:08;9.20;;;4.00;;
20209;SDS011;10264;53.178;5.840;2022-08-02T00:14:35;7.63;;;4.33;;
20209;SDS011;10264;53.178;5.840;2022-08-02T00:17:02;10.17;;;4.43;;
20209;SDS011;10264;53.178;5.840;2022-08-02T00:19:30;12.53;;;3.77;;
20209;SDS011;10264;53.178;5.840;2022-08-02T00:21:56;8.53;;;4.17;;
20209;SDS011;10264;53.178;5.840;2022-08-02T00:24:23;11.43;;;4.03;;
20209;SDS011;10264;53.178;5.840;2022-08-02T00:26:56;9.30;;;4.57;;
20209;SDS011;10264;53.178;5.840;2022-08-02T00:29:24;8.67;;;4.00;;
20209;SDS011;10264;53.178;5.840;2022-08-02T00:31:50;10.03;;;4.70;;
20209;SDS011;10264;53.178;5.840;2022-08-02T00:34:17;6.10;;;4.20;;
20209;SDS011;10264;53.178;5.840;2022-08-02T00:36:56;8.87;;;4.43;;
20209;SDS011;10264;53.178;5.840;2022-08-02T00:39:23;8.93;;;4.73;;
20209;SDS011;10264;53.178;5.840;2022-08-02T00:42:00;7.00;;;4.87;;
20209;SDS011;10264;53.178;5.840;2022-08-02T00:44:27;10.30;;;4.40;;
20209;SDS011;10264;53.178;5.840;2022-08-02T00:46:53;10.60;;;4.50;;
20209;SDS011;10264;53.178;5.840;2022-08-02T00:49:20;8.10;;;4.27;;
20209;SDS011;10264;53.178;5.840;2022-08-02T00:51:47;7.87;;;4.63;;
20209;SDS011;10264;53.178;5.840;2022-08-02T00:54:13;7.00;;;4.43;;
20209;SDS011;10264;53.178;5.840;2022-08-02T00:56:39;10.77;;;4.43;;
20209;SDS011;10264;53.178;5.840;2022-08-02T00:59:16;7.47;;;4.80;;
20209;SDS011;10264;53.178;5.840;2022-08-02T01:01:43;10.07;;;5.37;;
20209;SDS011;10264;53.178;5.840;2022-08-02T01:04:23;9.57;;;4.90;;
20209;SDS011;10264;53.178;5.840;2022-08-02T01:06:58;8.60;;;5.50;;
20209;SDS011;10264;53.178;5.840;2022-08-02T01:09:25;10.87;;;4.97;;
20209;SDS011;10264;53.178;5.840;2022-08-02T01:11:52;13.17;;;5.10;;
20209;SDS011;10264;53.178;5.840;2022-08-02T01:14:18;10.03;;;5.57;;
20209;SDS011;10264;53.178;5.840;2022-08-02T01:16:57;8.37;;;4.87;;
20209;SDS011;10264;53.178;5.840;2022-08-02T01:22:19;10.87;;;5.00;;
20209;SDS011;10264;53.178;5.840;2022-08-02T01:30:34;9.97;;;5.33;;
20209;SDS011;10264;53.178;5.840;2022-08-02T01:33:02;9.93;;;4.70;;
20209;SDS011;10264;53.178;5.840;2022-08-02T01:35:34;11.70;;;5.10;;
20209;SDS011;10264;53.178;5.840;2022-08-02T01:38:19;7.13;;;4.67;;
20209;SDS011;10264;53.178;5.840;2022-08-02T01:40:53;9.23;;;4.37;;
20209;SDS011;10264;53.178;5.840;2022-08-02T01:43:21;14.20;;;5.37;;
20209;SDS011;10264;53.178;5.840;2022-08-02T01:45:53;11.73;;;5.40;;
20209;SDS011;10264;53.178;5.840;2022-08-02T01:48:21;10.23;;;4.53;;
20209;SDS011;10264;53.178;5.840;2022-08-02T01:50:50;10.40;;;5.00;;
20209;SDS011;10264;53.178;5.840;2022-08-02T01:53:19;8.23;;;4.87;;
20209;SDS011;10264;53.178;5.840;2022-08-02T01:55:48;8.77;;;5.10;;
20209;SDS011;10264;53.178;5.840;2022-08-02T01:58:24;9.50;;;5.00;;
20209;SDS011;10264;53.178;5.840;2022-08-02T02:00:56;9.73;;;4.57;;
20209;SDS011;10264;53.178;5.840;2022-08-02T02:03:24;8.67;;;4.93;;
20209;SDS011;10264;53.178;5.840;2022-08-02T02:05:54;8.73;;;4.70;;
20209;SDS011;10264;53.178;5.840;2022-08-02T02:08:24;9.00;;;5.27;;
20209;SDS011;10264;53.178;5.840;2022-08-02T02:10:55;9.87;;;5.67;;
20209;SDS011;10264;53.178;5.840;2022-08-02T02:13:22;14.47;;;4.83;;
20209;SDS011;10264;53.178;5.840;2022-08-02T02:15:59;9.90;;;5.60;;
20209;SDS011;10264;53.178;5.840;2022-08-02T02:18:29;9.13;;;5.57;;
20209;SDS011;10264;53.178;5.840;2022-08-02T02:20:59;10.00;;;5.30;;
20209;SDS011;10264;53.178;5.840;2022-08-02T02:23:25;11.40;;;5.03;;
20209;SDS011;10264;53.178;5.840;2022-08-02T02:25:58;13.17;;;6.03;;
20209;SDS011;10264;53.178;5.840;2022-08-02T02:28:29;12.73;;;6.23;;
20209;SDS011;10264;53.178;5.840;2022-08-02T02:30:59;9.73;;;5.40;;
20209;SDS011;10264;53.178;5.840;2022-08-02T02:33:30;11.07;;;5.53;;
20209;SDS011;10264;53.178;5.840;2022-08-02T02:36:00;10.33;;;5.40;;
20209;SDS011;10264;53.178;5.840;2022-08-02T02:38:29;8.93;;;5.30;;
20209;SDS011;10264;53.178;5.840;2022-08-02T02:40:59;9.47;;;5.30;;
20209;SDS011;10264;53.178;5.840;2022-08-02T02:43:28;9.00;;;5.50;;
20209;SDS011;10264;53.178;5.840;2022-08-02T02:45:57;14.20;;;5.83;;
20209;SDS011;10264;53.178;5.840;2022-08-02T02:48:24;11.97;;;5.47;;
20209;SDS011;10264;53.178;5.840;2022-08-02T02:50:54;9.70;;;5.50;;
20209;SDS011;10264;53.178;5.840;2022-08-02T02:53:21;10.03;;;5.30;;
20209;SDS011;10264;53.178;5.840;2022-08-02T02:55:48;7.80;;;5.37;;
20209;SDS011;10264;53.178;5.840;2022-08-02T02:58:27;12.10;;;5.30;;
20209;SDS011;10264;53.178;5.840;2022-08-02T03:00:56;10.90;;;5.77;;
20209;SDS011;10264;53.178;5.840;2022-08-02T03:03:23;10.93;;;5.43;;
20209;SDS011;10264;53.178;5.840;2022-08-02T03:05:50;12.00;;;5.80;;
20209;SDS011;10264;53.178;5.840;2022-08-02T03:08:17;10.93;;;5.13;;
20209;SDS011;10264;53.178;5.840;2022-08-02T03:10:44;11.60;;;6.13;;
20209;SDS011;10264;53.178;5.840;2022-08-02T03:13:11;9.53;;;5.20;;
20209;SDS011;10264;53.178;5.840;2022-08-02T03:15:38;7.70;;;5.47;;
20209;SDS011;10264;53.178;5.840;2022-08-02T03:18:05;6.97;;;5.27;;
20209;SDS011;10264;53.178;5.840;2022-08-02T03:20:31;11.93;;;5.97;;
20209;SDS011;10264;53.178;5.840;2022-08-02T03:22:58;10.43;;;5.00;;
20209;SDS011;10264;53.178;5.840;2022-08-02T03:25:24;11.10;;;5.47;;
20209;SDS011;10264;53.178;5.840;2022-08-02T03:27:51;10.97;;;5.23;;
20209;SDS011;10264;53.178;5.840;2022-08-02T03:30:17;11.63;;;5.20;;
20209;SDS011;10264;53.178;5.840;2022-08-02T03:32:44;10.60;;;5.03;;
20209;SDS011;10264;53.178;5.840;2022-08-02T03:35:14;9.50;;;5.33;;
20209;SDS011;10264;53.178;5.840;2022-08-02T03:37:49;9.93;;;5.43;;
20209;SDS011;10264;53.178;5.840;2022-08-02T03:40:17;13.73;;;5.70;;
20209;SDS011;10264;53.178;5.840;2022-08-02T03:42:44;15.17;;;5.53;;
20209;SDS011;10264;53.178;5.840;2022-08-02T03:45:11;9.27;;;4.93;;
20209;SDS011;10264;53.178;5.840;2022-08-02T03:47:38;6.93;;;4.40;;
20209;SDS011;10264;53.178;5.840;2022-08-02T03:50:06;9.63;;;5.57;;
20209;SDS011;10264;53.178;5.840;2022-08-02T03:52:33;12.33;;;5.70;;
20209;SDS011;10264;53.178;5.840;2022-08-02T03:55:01;10.60;;;5.23;;
20209;SDS011;10264;53.178;5.840;2022-08-02T03:57:28;8.57;;;5.03;;
20209;SDS011;10264;53.178;5.840;2022-08-02T03:59:55;9.97;;;5.40;;
20209;SDS011;10264;53.178;5.840;2022-08-02T04:02:21;8.73;;;5.50;;
20209;SDS011;10264;53.178;5.840;2022-08-02T04:04:48;11.07;;;5.43;;
20209;SDS011;10264;53.178;5.840;2022-08-02T04:07:14;10.13;;;5.53;;
20209;SDS011;10264;53.178;5.840;2022-08-02T04:10:01;7.57;;;4.97;;
20209;SDS011;10264;53.178;5.840;2022-08-02T04:12:27;7.87;;;5.50;;
20209;SDS011;10264;53.178;5.840;2022-08-02T04:14:54;9.43;;;5.27;;
20209;SDS011;10264;53.178;5.840;2022-08-02T04:17:20;9.83;;;5.20;;
20209;SDS011;10264;53.178;5.840;2022-08-02T04:19:55;9.40;;;5.40;;
20209;SDS011;10264;53.178;5.840;2022-08-02T04:22:37;9.17;;;4.97;;
20209;SDS011;10264;53.178;5.840;2022-08-02T04:25:07;8.60;;;5.53;;
20209;SDS011;10264;53.178;5.840;2022-08-02T04:27:42;11.03;;;5.53;;
20209;SDS011;10264;53.178;5.840;2022-08-02T04:30:30;9.53;;;5.50;;
20209;SDS011;10264;53.178;5.840;2022-08-02T04:32:57;11.47;;;5.37;;
20209;SDS011;10264;53.178;5.840;2022-08-02T04:35:24;9.77;;;5.33;;
20209;SDS011;10264;53.178;5.840;2022-08-02T04:37:51;11.40;;;5.30;;
20209;SDS011;10264;53.178;5.840;2022-08-02T04:40:35;7.97;;;5.10;;
20209;SDS011;10264;53.178;5.840;2022-08-02T04:43:02;10.70;;;4.97;;
20209;SDS011;10264;53.178;5.840;2022-08-02T04:45:29;13.13;;;5.30;;
20209;SDS011;10264;53.178;5.840;2022-08-02T04:47:56;12.53;;;5.77;;
20209;SDS011;10264;53.178;5.840;2022-08-02T04:50:31;10.47;;;5.47;;
20209;SDS011;10264;53.178;5.840;2022-08-02T04:52:58;9.40;;;5.03;;
20209;SDS011;10264;53.178;5.840;2022-08-02T04:55:25;7.13;;;5.43;;
20209;SDS011;10264;53.178;5.840;2022-08-02T04:57:51;7.10;;;4.97;;
20209;SDS011;10264;53.178;5.840;2022-08-02T05:00:18;10.80;;;5.07;;
20209;SDS011;10264;53.178;5.840;2022-08-02T05:02:45;12.33;;;5.40;;
20209;SDS011;10264;53.178;5.840;2022-08-02T05:05:11;8.43;;;4.90;;
20209;SDS011;10264;53.178;5.840;2022-08-02T05:07:38;12.53;;;5.60;;
20209;SDS011;10264;53.178;5.840;2022-08-02T05:10:04;8.73;;;4.80;;
20209;SDS011;10264;53.178;5.840;2022-08-02T05:12:31;6.97;;;5.00;;
20209;SDS011;10264;53.178;5.840;2022-08-02T05:14:58;12.23;;;5.33;;
20209;SDS011;10264;53.178;5.840;2022-08-02T05:17:24;10.53;;;5.43;;
20209;SDS011;10264;53.178;5.840;2022-08-02T05:19:50;9.13;;;5.57;;
20209;SDS011;10264;53.178;5.840;2022-08-02T05:22:17;11.37;;;4.90;;
20209;SDS011;10264;53.178;5.840;2022-08-02T05:24:43;8.43;;;5.07;;
20209;SDS011;10264;53.178;5.840;2022-08-02T05:27:10;11.10;;;5.27;;
20209;SDS011;10264;53.178;5.840;2022-08-02T05:29:46;11.27;;;5.03;;
20209;SDS011;10264;53.178;5.840;2022-08-02T05:32:18;9.83;;;4.93;;
20209;SDS011;10264;53.178;5.840;2022-08-02T05:34:48;7.87;;;4.43;;
20209;SDS011;10264;53.178;5.840;2022-08-02T05:37:15;8.40;;;4.70;;
20209;SDS011;10264;53.178;5.840;2022-08-02T05:39:43;12.57;;;3.47;;
20209;SDS011;10264;53.178;5.840;2022-08-02T05:42:21;6.00;;;3.00;;
20209;SDS011;10264;53.178;5.840;2022-08-02T05:44:48;5.60;;;3.10;;
20209;SDS011;10264;53.178;5.840;2022-08-02T05:47:14;6.00;;;2.70;;
20209;SDS011;10264;53.178;5.840;2022-08-02T05:49:41;8.57;;;2.90;;
20209;SDS011;10264;53.178;5.840;2022-08-02T05:52:10;5.10;;;3.00;;
20209;SDS011;10264;53.178;5.840;2022-08-02T06:00:36;10.37;;;2.80;;
20209;SDS011;10264;53.178;5.840;2022-08-02T06:03:25;6.47;;;2.90;;
20209;SDS011;10264;53.178;5.840;2022-08-02T06:08:44;7.50;;;3.07;;
20209;SDS011;10264;53.178;5.840;2022-08-02T06:11:15;8.20;;;3.30;;
20209;SDS011;10264;53.178;5.840;2022-08-02T06:13:46;5.43;;;2.73;;
20209;SDS011;10264;53.178;5.840;2022-08-02T06:16:13;7.53;;;3.03;;
20209;SDS011;10264;53.178;5.840;2022-08-02T06:18:40;6.03;;;2.87;;
20209;SDS011;10264;53.178;5.840;2022-08-02T06:21:07;4.87;;;2.90;;
20209;SDS011;10264;53.178;5.840;2022-08-02T06:23:54;5.27;;;3.00;;
20209;SDS011;10264;53.178;5.840;2022-08-02T06:26:25;6.63;;;2.97;;
20209;SDS011;10264;53.178;5.840;2022-08-02T06:28:53;6.23;;;3.73;;
20209;SDS011;10264;53.178;5.840;2022-08-02T06:31:21;5.70;;;2.87;;
20209;SDS011;10264;53.178;5.840;2022-08-02T06:33:48;4.57;;;2.73;;
20209;SDS011;10264;53.178;5.840;2022-08-02T06:41:49;9.63;;;3.30;;
20209;SDS011;10264;53.178;5.840;2022-08-02T06:44:20;5.93;;;2.57;;
20209;SDS011;10264;53.178;5.840;2022-08-02T06:47:06;6.23;;;2.40;;
20209;SDS011;10264;53.178;5.840;2022-08-02T06:49:39;5.53;;;2.30;;
20209;SDS011;10264;53.178;5.840;2022-08-02T06:52:28;5.93;;;2.40;;
20209;SDS011;10264;53.178;5.840;2022-08-02T06:54:56;5.07;;;2.17;;
20209;SDS011;10264;53.178;5.840;2022-08-02T06:57:27;3.00;;;2.33;;
20209;SDS011;10264;53.178;5.840;2022-08-02T06:59:54;3.87;;;2.20;;
20209;SDS011;10264;53.178;5.840;2022-08-02T07:02:21;4.63;;;2.27;;
20209;SDS011;10264;53.178;5.840;2022-08-02T07:04:48;4.70;;;2.27;;
20209;SDS011;10264;53.178;5.840;2022-08-02T07:07:14;5.00;;;2.50;;
20209;SDS011;10264;53.178;5.840;2022-08-02T07:09:41;6.80;;;2.47;;
20209;SDS011;10264;53.178;5.840;2022-08-02T07:12:26;5.10;;;2.20;;
20209;SDS011;10264;53.178;5.840;2022-08-02T07:14:54;7.60;;;2.40;;
20209;SDS011;10264;53.178;5.840;2022-08-02T07:17:21;6.37;;;2.33;;
20209;SDS011;10264;53.178;5.840;2022-08-02T07:19:48;3.87;;;2.20;;
20209;SDS011;10264;53.178;5.840;2022-08-02T07:22:14;8.53;;;2.17;;
20209;SDS011;10264;53.178;5.840;2022-08-02T07:24:41;4.93;;;2.23;;
20209;SDS011;10264;53.178;5.840;2022-08-02T07:27:08;6.10;;;2.13;;
20209;SDS011;10264;53.178;5.840;2022-08-02T07:29:37;4.37;;;2.10;;
20209;SDS011;10264;53.178;5.840;2022-08-02T07:32:15;4.20;;;2.13;;
20209;SDS011;10264;53.178;5.840;2022-08-02T07:34:43;3.67;;;2.00;;
20209;SDS011;10264;53.178;5.840;2022-08-02T07:37:17;2.83;;;2.03;;
20209;SDS011;10264;53.178;5.840;2022-08-02T07:40:05;6.20;;;2.20;;
20209;SDS011;10264;53.178;5.840;2022-08-02T07:42:38;5.20;;;2.03;;
20209;SDS011;10264;53.178;5.840;2022-08-02T07:45:05;2.83;;;1.83;;
20209;SDS011;10264;53.178;5.840;2022-08-02T07:47:34;4.75;;;2.00;;
20209;SDS011;10264;53.178;5.840;2022-08-02T07:50:05;5.47;;;2.00;;
20209;SDS011;10264;53.178;5.840;2022-08-02T07:52:32;3.00;;;1.95;;
20209;SDS011;10264;53.178;5.840;2022-08-02T07:54:59;7.37;;;2.03;;
20209;SDS011;10264;53.178;5.840;2022-08-02T07:57:26;3.13;;;1.83;;
20209;SDS011;10264;53.178;5.840;2022-08-02T07:59:53;3.27;;;1.73;;
20209;SDS011;10264;53.178;5.840;2022-08-02T08:02:19;3.90;;;1.70;;
20209;SDS011;10264;53.178;5.840;2022-08-02T08:04:46;5.17;;;2.47;;
20209;SDS011;10264;53.178;5.840;2022-08-02T08:07:12;4.23;;;2.17;;
20209;SDS011;10264;53.178;5.840;2022-08-02T08:09:39;3.97;;;2.20;;
20209;SDS011;10264;53.178;5.840;2022-08-02T08:12:06;4.63;;;2.40;;
20209;SDS011;10264;53.178;5.840;2022-08-02T08:14:34;3.70;;;2.10;;
20209;SDS011;10264;53.178;5.840;2022-08-02T08:17:01;5.70;;;2.50;;
20209;SDS011;10264;53.178;5.840;2022-08-02T08:19:28;3.40;;;2.03;;
20209;SDS011;10264;53.178;5.840;2022-08-02T08:22:14;2.25;;;2.05;;
20209;SDS011;10264;53.178;5.840;2022-08-02T08:24:41;9.05;;;2.55;;
20209;SDS011;10264;53.178;5.840;2022-08-02T08:27:07;4.00;;;2.33;;
20209;SDS011;10264;53.178;5.840;2022-08-02T08:29:34;5.88;;;2.15;;
20209;SDS011;10264;53.178;5.840;2022-08-02T08:32:00;5.25;;;2.65;;
20209;SDS011;10264;53.178;5.840;2022-08-02T08:34:27;4.28;;;2.60;;
20209;SDS011;10264;53.178;5.840;2022-08-02T08:36:53;6.80;;;2.33;;
20209;SDS011;10264;53.178;5.840;2022-08-02T08:39:20;6.38;;;2.78;;
20209;SDS011;10264;53.178;5.840;2022-08-02T08:41:46;7.60;;;3.10;;
20209;SDS011;10264;53.178;5.840;2022-08-02T08:44:13;4.05;;;2.42;;
20209;SDS011;10264;53.178;5.840;2022-08-02T08:46:39;4.90;;;2.85;;
20209;SDS011;10264;53.178;5.840;2022-08-02T08:49:09;4.35;;;2.50;;
20209;SDS011;10264;53.178;5.840;2022-08-02T08:51:41;7.75;;;3.00;;
20209;SDS011;10264;53.178;5.840;2022-08-02T08:54:10;5.95;;;2.88;;
20209;SDS011;10264;53.178;5.840;2022-08-02T08:56:40;4.65;;;2.78;;
20209;SDS011;10264;53.178;5.840;2022-08-02T08:59:09;7.28;;;2.80;;
20209;SDS011;10264;53.178;5.840;2022-08-02T09:01:35;4.78;;;3.00;;
20209;SDS011;10264;53.178;5.840;2022-08-02T09:04:18;4.97;;;3.20;;
20209;SDS011;10264;53.178;5.840;2022-08-02T09:06:46;5.70;;;3.00;;
20209;SDS011;10264;53.178;5.840;2022-08-02T09:09:16;5.93;;;3.33;;
20209;SDS011;10264;53.178;5.840;2022-08-02T09:11:44;7.00;;;2.60;;
20209;SDS011;10264;53.178;5.840;2022-08-02T09:14:11;4.93;;;3.20;;
20209;SDS011;10264;53.178;5.840;2022-08-02T09:16:51;6.90;;;3.43;;
20209;SDS011;10264;53.178;5.840;2022-08-02T09:19:21;4.00;;;2.87;;
20209;SDS011;10264;53.178;5.840;2022-08-02T09:21:50;6.47;;;4.30;;
20209;SDS011;10264;53.178;5.840;2022-08-02T09:27:14;7.10;;;4.50;;
20209;SDS011;10264;53.178;5.840;2022-08-02T09:29:49;4.25;;;3.83;;
20209;SDS011;10264;53.178;5.840;2022-08-02T09:32:44;4.80;;;3.83;;
20209;SDS011;10264;53.178;5.840;2022-08-02T09:35:11;6.95;;;4.50;;
20209;SDS011;10264;53.178;5.840;2022-08-02T09:37:37;6.57;;;4.40;;
20209;SDS011;10264;53.178;5.840;2022-08-02T09:40:04;6.20;;;4.22;;
20209;SDS011;10264;53.178;5.840;2022-08-02T09:42:31;5.80;;;4.93;;
20209;SDS011;10264;53.178;5.840;2022-08-02T09:44:58;6.40;;;4.78;;
20209;SDS011;10264;53.178;5.840;2022-08-02T09:47:27;7.13;;;4.95;;
20209;SDS011;10264;53.178;5.840;2022-08-02T09:49:56;7.70;;;6.10;;
20209;SDS011;10264;53.178;5.840;2022-08-02T09:52:30;10.23;;;6.03;;
20209;SDS011;10264;53.178;5.840;2022-08-02T09:55:08;7.87;;;5.70;;
20209;SDS011;10264;53.178;5.840;2022-08-02T09:57:36;7.93;;;6.28;;
20209;SDS011;10264;53.178;5.840;2022-08-02T10:00:06;8.82;;;6.38;;
20209;SDS011;10264;53.178;5.840;2022-08-02T10:03:25;7.90;;;6.82;;
20209;SDS011;10264;53.178;5.840;2022-08-02T10:05:48;7.95;;;6.13;;
20209;SDS011;10264;53.178;5.840;2022-08-02T10:08:20;6.63;;;5.90;;
20209;SDS011;10264;53.178;5.840;2022-08-02T10:10:47;6.72;;;5.47;;
20209;SDS011;10264;53.178;5.840;2022-08-02T10:13:14;6.95;;;5.63;;
20209;SDS011;10264;53.178;5.840;2022-08-02T10:15:46;9.77;;;7.10;;
20209;SDS011;10264;53.178;5.840;2022-08-02T10:18:15;9.50;;;8.35;;
20209;SDS011;10264;53.178;5.840;2022-08-02T10:21:02;11.35;;;8.73;;
20209;SDS011;10264;53.178;5.840;2022-08-02T10:23:33;9.10;;;8.10;;
20209;SDS011;10264;53.178;5.840;2022-08-02T10:26:01;13.60;;;9.38;;
20209;SDS011;10264;53.178;5.840;2022-08-02T10:28:28;14.63;;;10.70;;
20209;SDS011;10264;53.178;5.840;2022-08-02T10:30:54;14.33;;;10.17;;
20209;SDS011;10264;53.178;5.840;2022-08-02T10:33:22;11.63;;;9.87;;
20209;SDS011;10264;53.178;5.840;2022-08-02T10:35:51;15.03;;;10.97;;
20209;SDS011;10264;53.178;5.840;2022-08-02T10:38:32;114.77;;;25.13;;
20209;SDS011;10264;53.178;5.840;2022-08-02T10:41:00;15.57;;;11.43;;
20209;SDS011;10264;53.178;5.840;2022-08-02T10:49:12;12.03;;;9.83;;
20209;SDS011;10264;53.178;5.840;2022-08-02T10:54:39;11.90;;;10.17;;
20209;SDS011;10264;53.178;5.840;2022-08-02T11:02:45;14.83;;;11.07;;
20209;SDS011;10264;53.178;5.840;2022-08-02T11:05:28;14.67;;;10.90;;
20209;SDS011;10264;53.178;5.840;2022-08-02T11:08:18;15.47;;;12.17;;
20209;SDS011;10264;53.178;5.840;2022-08-02T11:10:46;11.27;;;10.07;;
20209;SDS011;10264;53.178;5.840;2022-08-02T11:13:14;14.10;;;11.63;;
20209;SDS011;10264;53.178;5.840;2022-08-02T11:18:16;14.20;;;11.47;;
20209;SDS011;10264;53.178;5.840;2022-08-02T11:20:43;15.27;;;12.53;;
20209;SDS011;10264;53.178;5.840;2022-08-02T11:28:56;12.20;;;10.67;;
20209;SDS011;10264;53.178;5.840;2022-08-02T11:31:24;14.43;;;11.60;;
20209;SDS011;10264;53.178;5.840;2022-08-02T11:33:51;15.00;;;12.60;;
20209;SDS011;10264;53.178;5.840;2022-08-02T11:36:18;12.97;;;11.43;;
20209;SDS011;10264;53.178;5.840;2022-08-02T11:38:48;16.73;;;12.40;;
20209;SDS011;10264;53.178;5.840;2022-08-02T11:41:18;16.40;;;12.93;;
20209;SDS011;10264;53.178;5.840;2022-08-02T11:44:05;17.10;;;12.73;;
20209;SDS011;10264;53.178;5.840;2022-08-02T11:46:32;18.27;;;12.17;;
20209;SDS011;10264;53.178;5.840;2022-08-02T11:49:15;14.20;;;12.47;;
20209;SDS011;10264;53.178;5.840;2022-08-02T11:51:50;16.47;;;12.33;;
20209;SDS011;10264;53.178;5.840;2022-08-02T11:54:22;15.67;;;11.93;;
20209;SDS011;10264;53.178;5.840;2022-08-02T11:59:45;16.70;;;12.33;;
20209;SDS011;10264;53.178;5.840;2022-08-02T12:02:14;14.10;;;11.03;;
20209;SDS011;10264;53.178;5.840;2022-08-02T12:04:41;14.33;;;11.47;;
20209;SDS011;10264;53.178;5.840;2022-08-02T12:07:09;15.17;;;11.97;;
20209;SDS011;10264;53.178;5.840;2022-08-02T12:09:35;14.93;;;12.23;;
20209;SDS011;10264;53.178;5.840;2022-08-02T12:12:06;12.87;;;11.27;;
20209;SDS011;10264;53.178;5.840;2022-08-02T12:14:33;16.13;;;12.13;;
20209;SDS011;10264;53.178;5.840;2022-08-02T12:17:07;18.43;;;13.67;;
20209;SDS011;10264;53.178;5.840;2022-08-02T12:19:34;18.00;;;12.67;;
20209;SDS011;10264;53.178;5.840;2022-08-02T12:22:18;14.50;;;11.93;;
20209;SDS011;10264;53.178;5.840;2022-08-02T12:24:55;15.20;;;13.10;;
20209;SDS011;10264;53.178;5.840;2022-08-02T12:28:16;15.40;;;12.63;;
20209;SDS011;10264;53.178;5.840;2022-08-02T12:30:56;16.87;;;12.80;;
20209;SDS011;10264;53.178;5.840;2022-08-02T12:33:44;18.00;;;12.87;;
20209;SDS011;10264;53.178;5.840;2022-08-02T12:36:17;16.83;;;12.50;;
20209;SDS011;10264;53.178;5.840;2022-08-02T12:38:53;18.37;;;14.00;;
20209;SDS011;10264;53.178;5.840;2022-08-02T12:41:29;19.57;;;13.90;;
20209;SDS011;10264;53.178;5.840;2022-08-02T12:43:58;18.70;;;14.87;;
20209;SDS011;10264;53.178;5.840;2022-08-02T12:46:25;15.63;;;13.93;;
20209;SDS011;10264;53.178;5.840;2022-08-02T12:48:52;18.03;;;13.67;;
20209;SDS011;10264;53.178;5.840;2022-08-02T12:51:38;15.87;;;12.67;;
20209;SDS011;10264;53.178;5.840;2022-08-02T12:57:10;21.80;;;13.97;;
20209;SDS011;10264;53.178;5.840;2022-08-02T12:59:38;20.13;;;13.30;;
20209;SDS011;10264;53.178;5.840;2022-08-02T13:02:07;17.27;;;13.77;;
20209;SDS011;10264;53.178;5.840;2022-08-02T13:04:35;15.03;;;12.27;;
20209;SDS011;10264;53.178;5.840;2022-08-02T13:07:03;15.27;;;11.90;;
20209;SDS011;10264;53.178;5.840;2022-08-02T13:09:39;14.80;;;12.03;;
20209;SDS011;10264;53.178;5.840;2022-08-02T13:12:07;13.87;;;10.90;;
20209;SDS011;10264;53.178;5.840;2022-08-02T13:14:36;13.53;;;11.10;;
20209;SDS011;10264;53.178;5.840;2022-08-02T13:17:08;12.20;;;10.73;;
20209;SDS011;10264;53.178;5.840;2022-08-02T13:19:37;16.53;;;11.40;;
20209;SDS011;10264;53.178;5.840;2022-08-02T13:22:04;15.03;;;11.70;;
20209;SDS011;10264;53.178;5.840;2022-08-02T13:24:31;12.57;;;10.10;;
20209;SDS011;10264;53.178;5.840;2022-08-02T13:27:18;11.10;;;9.90;;
20209;SDS011;10264;53.178;5.840;2022-08-02T13:29:46;8.40;;;6.83;;
20209;SDS011;10264;53.178;5.840;2022-08-02T13:32:13;6.40;;;5.20;;
20209;SDS011;10264;53.178;5.840;2022-08-02T13:34:40;6.83;;;5.13;;
20209;SDS011;10264;53.178;5.840;2022-08-02T13:37:06;5.40;;;4.23;;
20209;SDS011;10264;53.178;5.840;2022-08-02T13:39:33;5.20;;;4.40;;
20209;SDS011;10264;53.178;5.840;2022-08-02T13:41:59;6.03;;;4.10;;
20209;SDS011;10264;53.178;5.840;2022-08-02T13:44:26;6.47;;;4.67;;
20209;SDS011;10264;53.178;5.840;2022-08-02T13:46:52;8.00;;;5.57;;
20209;SDS011;10264;53.178;5.840;2022-08-02T13:49:19;6.30;;;5.70;;
20209;SDS011;10264;53.178;5.840;2022-08-02T13:51:47;6.60;;;5.70;;
20209;SDS011;10264;53.178;5.840;2022-08-02T13:54:14;7.00;;;5.83;;
20209;SDS011;10264;53.178;5.840;2022-08-02T13:56:41;10.00;;;5.13;;
20209;SDS011;10264;53.178;5.840;2022-08-02T13:59:08;9.17;;;5.97;;
20209;SDS011;10264;53.178;5.840;2022-08-02T14:01:55;7.97;;;5.13;;
20209;SDS011;10264;53.178;5.840;2022-08-02T14:04:22;7.13;;;5.70;;
20209;SDS011;10264;53.178;5.840;2022-08-02T14:06:49;7.73;;;5.87;;
20209;SDS011;10264;53.178;5.840;2022-08-02T14:09:15;10.53;;;5.40;;
20209;SDS011;10264;53.178;5.840;2022-08-02T14:11:43;6.67;;;5.50;;
20209;SDS011;10264;53.178;5.840;2022-08-02T14:14:10;8.03;;;5.10;;
20209;SDS011;10264;53.178;5.840;2022-08-02T14:16:43;5.40;;;4.90;;
20209;SDS011;10264;53.178;5.840;2022-08-02T14:19:10;4.77;;;4.37;;
20209;SDS011;10264;53.178;5.840;2022-08-02T14:21:42;6.80;;;3.87;;
20209;SDS011;10264;53.178;5.840;2022-08-02T14:24:14;7.17;;;4.07;;
20209;SDS011;10264;53.178;5.840;2022-08-02T14:26:41;5.80;;;4.30;;
20209;SDS011;10264;53.178;5.840;2022-08-02T14:29:08;5.67;;;3.53;;
20209;SDS011;10264;53.178;5.840;2022-08-02T14:31:35;4.57;;;3.87;;
20209;SDS011;10264;53.178;5.840;2022-08-02T14:34:09;5.63;;;3.53;;
20209;SDS011;10264;53.178;5.840;2022-08-02T14:36:36;7.57;;;4.47;;
20209;SDS011;10264;53.178;5.840;2022-08-02T14:39:03;4.77;;;3.60;;
20209;SDS011;10264;53.178;5.840;2022-08-02T14:41:30;5.80;;;3.73;;
20209;SDS011;10264;53.178;5.840;2022-08-02T14:43:56;5.40;;;3.67;;
20209;SDS011;10264;53.178;5.840;2022-08-02T14:46:22;7.20;;;3.90;;
20209;SDS011;10264;53.178;5.840;2022-08-02T14:48:49;6.63;;;3.83;;
20209;SDS011;10264;53.178;5.840;2022-08-02T14:51:15;5.90;;;4.50;;
20209;SDS011;10264;53.178;5.840;2022-08-02T14:53:42;5.17;;;3.83;;
20209;SDS011;10264;53.178;5.840;2022-08-02T14:56:14;5.63;;;3.53;;
20209;SDS011;10264;53.178;5.840;2022-08-02T14:58:41;9.10;;;4.50;;
20209;SDS011;10264;53.178;5.840;2022-08-02T15:01:07;8.07;;;3.93;;
20209;SDS011;10264;53.178;5.840;2022-08-02T15:03:39;5.10;;;3.10;;
20209;SDS011;10264;53.178;5.840;2022-08-02T15:06:08;4.87;;;3.30;;
20209;SDS011;10264;53.178;5.840;2022-08-02T15:08:35;5.57;;;3.10;;
20209;SDS011;10264;53.178;5.840;2022-08-02T15:11:02;10.67;;;3.90;;
20209;SDS011;10264;53.178;5.840;2022-08-02T15:13:28;5.40;;;3.10;;
20209;SDS011;10264;53.178;5.840;2022-08-02T15:15:55;6.50;;;3.07;;
20209;SDS011;10264;53.178;5.840;2022-08-02T15:18:21;5.43;;;3.60;;
20209;SDS011;10264;53.178;5.840;2022-08-02T15:20:49;4.27;;;2.93;;
20209;SDS011;10264;53.178;5.840;2022-08-02T15:23:23;5.20;;;3.13;;
20209;SDS011;10264;53.178;5.840;2022-08-02T15:26:04;7.60;;;3.47;;
20209;SDS011;10264;53.178;5.840;2022-08-02T15:28:31;5.90;;;3.37;;
20209;SDS011;10264;53.178;5.840;2022-08-02T15:30:58;4.23;;;2.77;;
20209;SDS011;10264;53.178;5.840;2022-08-02T15:33:25;3.37;;;2.50;;
20209;SDS011;10264;53.178;5.840;2022-08-02T15:35:51;2.90;;;2.37;;
20209;SDS011;10264;53.178;5.840;2022-08-02T15:38:18;4.03;;;2.47;;
20209;SDS011;10264;53.178;5.840;2022-08-02T15:40:44;7.03;;;3.63;;
20209;SDS011;10264;53.178;5.840;2022-08-02T15:43:11;8.00;;;2.87;;
20209;SDS011;10264;53.178;5.840;2022-08-02T15:45:37;6.90;;;2.80;;
20209;SDS011;10264;53.178;5.840;2022-08-02T15:48:05;9.17;;;3.20;;
20209;SDS011;10264;53.178;5.840;2022-08-02T15:50:32;6.60;;;2.70;;
20209;SDS011;10264;53.178;5.840;2022-08-02T15:52:58;8.73;;;3.10;;